Time;durP1;ratioP1;P1;durP2;ratioP2;P2;SDS_P1;SDS_P2;PMS_P1;PMS_P2;Temp;Humidity;BMP_temperature;BMP_pressure;BME280_temperature;BME280_humidity;BME280_pressure;Samples;Min_cycle;Max_cycle;Signal;HPM_P1;HPM_P2
2022/01/08 00:01:01;;;;;;;14.82;7.68;;;3.30;99.90;;;;;;5079272;28;20025;-75
2022/01/08 00:03:26;;;;;;;18.02;7.95;;;3.20;99.90;;;;;;5079197;28;20028;-75
2022/01/08 00:05:56;;;;;;;16.92;8.23;;;3.20;99.90;;;;;;5073856;28;20544;-75
2022/01/08 00:08:22;;;;;;;15.60;7.32;;;3.20;99.90;;;;;;5091074;28;20013;-74
2022/01/08 00:10:48;;;;;;;15.10;7.25;;;3.20;99.90;;;;;;5068470;28;20430;-74
2022/01/08 00:13:14;;;;;;;18.30;7.25;;;3.30;99.90;;;;;;5091210;28;20096;-76
2022/01/08 00:15:40;;;;;;;16.17;7.10;;;3.20;99.90;;;;;;5092465;28;20007;-74
2022/01/08 00:18:05;;;;;;;20.08;7.53;;;3.20;99.90;;;;;;5073988;28;20092;-75
2022/01/08 00:20:31;;;;;;;25.38;7.63;;;3.20;99.90;;;;;;5065212;28;20056;-75
2022/01/08 00:22:57;;;;;;;16.77;7.55;;;3.20;99.90;;;;;;5089330;28;20024;-74
2022/01/08 00:25:23;;;;;;;18.73;7.85;;;3.20;99.90;;;;;;5094745;28;20012;-74
2022/01/08 00:27:48;;;;;;;23.13;7.40;;;3.20;99.90;;;;;;5078706;28;20040;-75
2022/01/08 00:30:14;;;;;;;20.67;9.10;;;3.30;99.90;;;;;;5086397;28;20077;-76
2022/01/08 00:32:40;;;;;;;16.10;7.47;;;3.20;99.90;;;;;;5072610;28;20109;-76
2022/01/08 00:35:08;;;;;;;14.60;7.55;;;3.20;99.90;;;;;;5072742;28;20036;-76
2022/01/08 00:37:34;;;;;;;20.55;8.73;;;3.20;99.90;;;;;;5072570;28;20029;-77
2022/01/08 00:40:00;;;;;;;18.42;8.73;;;3.20;99.90;;;;;;5072551;28;20021;-76
2022/01/08 00:42:26;;;;;;;14.15;7.85;;;3.20;99.90;;;;;;5054428;28;20017;-75
2022/01/08 00:44:52;;;;;;;20.08;8.27;;;3.20;99.90;;;;;;5071959;28;20029;-76
2022/01/08 00:47:17;;;;;;;20.27;8.18;;;3.20;99.90;;;;;;5072394;28;20039;-75
2022/01/08 00:49:43;;;;;;;14.30;8.00;;;3.20;99.90;;;;;;5072689;28;20025;-75
2022/01/08 00:52:09;;;;;;;19.75;8.65;;;3.20;99.90;;;;;;5074523;28;20051;-75
2022/01/08 00:54:36;;;;;;;16.38;8.13;;;3.30;99.90;;;;;;5090462;28;20028;-74
2022/01/08 00:57:03;;;;;;;23.15;9.32;;;3.20;99.90;;;;;;5078122;28;20038;-76
2022/01/08 00:59:29;;;;;;;20.25;9.05;;;3.10;99.90;;;;;;5073146;28;20389;-76
2022/01/08 01:01:54;;;;;;;19.67;9.50;;;3.10;99.90;;;;;;5073420;28;20033;-75
2022/01/08 01:04:20;;;;;;;17.23;9.18;;;3.10;99.90;;;;;;5088166;28;20024;-76
2022/01/08 01:06:45;;;;;;;22.02;10.07;;;3.10;99.90;;;;;;5088665;28;20055;-76
2022/01/08 01:09:11;;;;;;;21.40;9.85;;;3.10;99.90;;;;;;5075103;28;20028;-76
2022/01/08 01:11:37;;;;;;;27.40;10.68;;;3.10;99.90;;;;;;5072651;28;20028;-77
2022/01/08 01:14:02;;;;;;;20.95;10.82;;;3.10;99.90;;;;;;5071874;28;20021;-75
2022/01/08 01:16:28;;;;;;;25.00;11.13;;;3.20;99.90;;;;;;5071828;28;20123;-75
2022/01/08 01:18:54;;;;;;;21.55;11.07;;;3.20;99.90;;;;;;5074104;28;20086;-74
2022/01/08 01:21:20;;;;;;;23.83;11.43;;;3.20;99.90;;;;;;5055976;28;20033;-74
2022/01/08 01:23:47;;;;;;;23.52;11.50;;;3.20;99.90;;;;;;5055228;28;20256;-75
2022/01/08 01:26:18;;;;;;;24.23;12.63;;;3.20;99.90;;;;;;5075150;28;20024;-74
2022/01/08 01:29:02;;;;;;;23.77;11.50;;;3.30;99.90;;;;;;5079654;28;20025;-74
2022/01/08 01:43:06;;;;;;;29.47;14.67;;;3.30;99.90;;;;;;5077666;28;20094;-74
2022/01/08 01:47:55;;;;;;;27.35;14.40;;;3.40;99.90;;;;;;5077362;28;20075;-76
2022/01/08 01:50:21;;;;;;;23.25;14.18;;;3.40;99.90;;;;;;5076501;28;20024;-75
2022/01/08 01:52:46;;;;;;;23.98;13.65;;;3.40;99.90;;;;;;5077226;28;20457;-76
2022/01/08 01:55:12;;;;;;;26.88;14.20;;;3.30;99.90;;;;;;5059417;28;20509;-75
2022/01/08 01:57:38;;;;;;;29.33;14.40;;;3.40;99.90;;;;;;5077644;28;20024;-74
2022/01/08 02:00:06;;;;;;;30.77;14.75;;;3.40;99.90;;;;;;5078192;28;20033;-74
2022/01/08 02:02:32;;;;;;;22.33;13.45;;;3.40;99.90;;;;;;5077016;28;20021;-75
2022/01/08 02:04:57;;;;;;;24.38;13.82;;;3.40;99.90;;;;;;5077899;28;20025;-75
2022/01/08 02:07:27;;;;;;;23.40;11.75;;;3.40;99.90;;;;;;5078251;28;20024;-75
2022/01/08 02:09:54;;;;;;;21.83;11.95;;;3.40;99.90;;;;;;5059887;28;20477;-75
2022/01/08 02:12:22;;;;;;;23.65;12.55;;;3.40;99.90;;;;;;5077995;28;20031;-75
2022/01/08 02:14:49;;;;;;;17.95;11.23;;;3.40;99.90;;;;;;5083895;28;20017;-75
2022/01/08 02:17:15;;;;;;;24.05;10.57;;;3.30;99.90;;;;;;5092492;28;20024;-75
2022/01/08 02:19:41;;;;;;;20.65;10.23;;;3.40;99.90;;;;;;5093291;28;20021;-75
2022/01/08 02:22:10;;;;;;;18.77;11.23;;;3.40;99.90;;;;;;5088434;28;20059;-75
2022/01/08 02:24:36;;;;;;;20.42;10.38;;;3.40;99.90;;;;;;5077628;28;20115;-75
2022/01/08 02:27:02;;;;;;;24.30;10.80;;;3.40;99.90;;;;;;5058438;28;20025;-76
2022/01/08 02:29:28;;;;;;;22.98;10.73;;;3.40;99.90;;;;;;5076666;28;20028;-76
2022/01/08 02:31:58;;;;;;;19.08;9.65;;;3.40;99.90;;;;;;5077368;28;20040;-76
2022/01/08 02:34:26;;;;;;;17.10;9.30;;;3.50;99.90;;;;;;5076776;28;20093;-74
2022/01/08 02:36:53;;;;;;;19.35;10.30;;;3.40;99.90;;;;;;5076760;28;20044;-74
2022/01/08 02:39:18;;;;;;;15.43;9.73;;;3.40;99.90;;;;;;5059980;28;20028;-75
2022/01/08 02:41:44;;;;;;;19.38;9.43;;;3.40;99.90;;;;;;5060831;28;20044;-76
2022/01/08 02:44:11;;;;;;;16.50;9.30;;;3.40;99.90;;;;;;5080560;28;20052;-76
2022/01/08 02:46:41;;;;;;;17.08;9.30;;;3.40;99.90;;;;;;5060524;28;20070;-74
2022/01/08 02:49:07;;;;;;;16.60;9.07;;;3.40;99.90;;;;;;5074726;28;20020;-75
2022/01/08 02:51:35;;;;;;;17.35;8.75;;;3.50;99.90;;;;;;5056623;28;20025;-76
2022/01/08 02:54:07;;;;;;;20.52;9.00;;;3.40;99.90;;;;;;5073943;28;20025;-75
2022/01/08 02:56:32;;;;;;;18.73;9.13;;;3.50;99.90;;;;;;5073927;28;20839;-75
2022/01/08 02:58:58;;;;;;;15.90;8.40;;;3.50;99.90;;;;;;5074272;28;20025;-75
2022/01/08 03:01:24;;;;;;;17.63;8.57;;;3.50;99.90;;;;;;5073948;28;20021;-76
2022/01/08 03:03:52;;;;;;;14.55;8.30;;;3.50;99.90;;;;;;5074462;28;20085;-75
2022/01/08 03:06:17;;;;;;;15.45;8.07;;;3.50;99.90;;;;;;5073867;28;20017;-75
2022/01/08 03:08:43;;;;;;;16.50;8.45;;;3.50;99.90;;;;;;5073903;28;20086;-75
2022/01/08 03:11:09;;;;;;;14.73;7.93;;;3.40;99.90;;;;;;5078127;28;20031;-75
2022/01/08 03:13:36;;;;;;;16.42;8.55;;;3.50;99.90;;;;;;5079312;28;20033;-75
2022/01/08 03:16:02;;;;;;;19.30;8.40;;;3.40;99.90;;;;;;5057530;28;20074;-75
2022/01/08 03:18:27;;;;;;;16.95;8.52;;;3.50;99.90;;;;;;5074557;28;20021;-75
2022/01/08 03:21:01;;;;;;;18.70;9.27;;;3.40;99.90;;;;;;5055778;28;20501;-75
2022/01/08 03:23:37;;;;;;;25.80;9.68;;;3.40;99.90;;;;;;5074169;28;20029;-75
2022/01/08 03:26:03;;;;;;;21.80;9.45;;;3.40;99.90;;;;;;5074209;28;20115;-75
2022/01/08 03:28:28;;;;;;;23.05;10.15;;;3.50;99.90;;;;;;5074016;28;20051;-75
2022/01/08 03:30:54;;;;;;;15.75;9.70;;;3.50;99.90;;;;;;5074135;28;20037;-75
2022/01/08 03:33:19;;;;;;;18.25;9.80;;;3.50;99.90;;;;;;5073301;28;20024;-75
2022/01/08 03:35:45;;;;;;;21.48;9.65;;;3.50;99.90;;;;;;5073729;28;20025;-75
2022/01/08 03:38:10;;;;;;;23.27;10.80;;;3.40;99.90;;;;;;5073629;28;20029;-75
2022/01/08 03:40:36;;;;;;;19.88;10.32;;;3.40;99.90;;;;;;5073514;28;20444;-75
2022/01/08 03:43:02;;;;;;;24.85;10.60;;;3.40;99.90;;;;;;5073642;28;20028;-75
2022/01/08 03:45:27;;;;;;;22.63;10.70;;;3.40;99.90;;;;;;5073150;28;20024;-75
2022/01/08 03:50:18;;;;;;;23.83;10.77;;;3.40;99.90;;;;;;5073854;28;20078;-78
2022/01/08 03:52:46;;;;;;;23.30;11.40;;;3.30;99.90;;;;;;5074214;28;20024;-75
2022/01/08 03:55:12;;;;;;;26.13;12.10;;;3.30;99.90;;;;;;5073466;28;20404;-75
2022/01/08 03:57:37;;;;;;;27.70;12.05;;;3.40;99.90;;;;;;5073752;28;20476;-75
2022/01/08 04:00:04;;;;;;;23.52;12.30;;;3.40;99.90;;;;;;5075463;28;20021;-75
2022/01/08 04:02:30;;;;;;;22.92;12.05;;;3.40;99.90;;;;;;5094454;28;20424;-75
2022/01/08 04:04:55;;;;;;;27.27;12.25;;;3.50;99.90;;;;;;5094226;28;20024;-75
2022/01/08 04:07:21;;;;;;;28.23;13.02;;;3.50;99.90;;;;;;5082225;28;20469;-73
2022/01/08 04:09:46;;;;;;;26.10;12.77;;;3.50;99.90;;;;;;5110208;28;20028;-74
2022/01/08 04:12:17;;;;;;;29.20;13.80;;;3.50;99.90;;;;;;5101156;28;20555;-75
2022/01/08 04:14:53;;;;;;;28.08;13.98;;;3.40;99.90;;;;;;5112170;28;20020;-73
2022/01/08 04:17:19;;;;;;;26.60;14.10;;;3.50;99.90;;;;;;5116657;28;20016;-74
2022/01/08 04:19:45;;;;;;;29.35;14.05;;;3.40;99.90;;;;;;5117045;28;20024;-74
2022/01/08 04:22:12;;;;;;;30.17;14.35;;;3.40;99.90;;;;;;5116264;28;20024;-74
2022/01/08 04:24:39;;;;;;;29.67;14.35;;;3.40;99.90;;;;;;5099567;28;20099;-74
2022/01/08 04:27:05;;;;;;;30.67;15.35;;;3.40;99.90;;;;;;5116538;28;20028;-74
2022/01/08 04:29:31;;;;;;;29.23;15.75;;;3.40;99.90;;;;;;5116831;28;20016;-74
2022/01/08 04:31:56;;;;;;;29.85;15.82;;;3.50;99.90;;;;;;5116973;28;20049;-74
2022/01/08 04:34:22;;;;;;;39.47;16.60;;;3.50;99.90;;;;;;5099709;28;20008;-73
2022/01/08 04:36:47;;;;;;;35.60;17.65;;;3.50;99.90;;;;;;5131295;23;20119;-76
2022/01/08 04:39:13;;;;;;;39.22;17.15;;;3.40;99.90;;;;;;5118129;28;20035;-76
2022/01/08 04:41:41;;;;;;;37.45;16.75;;;3.40;99.90;;;;;;5118140;28;20103;-76
2022/01/08 04:44:07;;;;;;;32.13;16.85;;;3.40;99.90;;;;;;5114794;28;20012;-76
2022/01/08 04:46:33;;;;;;;38.55;16.38;;;3.40;99.90;;;;;;5114721;28;20020;-77
2022/01/08 04:48:59;;;;;;;32.17;15.35;;;3.40;99.90;;;;;;5114569;28;20209;-77
2022/01/08 04:51:24;;;;;;;31.35;15.40;;;3.40;99.90;;;;;;5114131;28;20084;-76
2022/01/08 04:53:50;;;;;;;28.15;14.80;;;3.40;99.90;;;;;;5115427;28;20020;-75
2022/01/08 04:56:15;;;;;;;27.73;14.55;;;3.40;99.90;;;;;;5116783;28;20056;-75
2022/01/08 04:58:41;;;;;;;29.08;14.38;;;3.40;99.90;;;;;;5117782;28;20049;-77
2022/01/08 05:01:14;;;;;;;29.70;15.10;;;3.40;99.90;;;;;;5119092;28;20023;-76
2022/01/08 05:03:40;;;;;;;29.90;14.55;;;3.40;99.90;;;;;;5124573;28;20023;-76
2022/01/08 05:06:06;;;;;;;28.67;14.23;;;3.40;99.90;;;;;;5131194;28;20070;-75
2022/01/08 05:08:31;;;;;;;33.83;16.55;;;3.40;99.90;;;;;;5130280;28;20028;-75
2022/01/08 05:10:57;;;;;;;38.67;16.35;;;3.50;99.90;;;;;;5129919;28;20046;-78
2022/01/08 05:13:22;;;;;;;32.50;15.75;;;3.40;99.90;;;;;;5121631;28;20027;-75
2022/01/08 05:15:48;;;;;;;32.45;15.35;;;3.40;99.90;;;;;;5122222;28;20031;-76
2022/01/08 05:18:14;;;;;;;33.58;15.60;;;3.50;99.90;;;;;;5124795;28;20419;-77
2022/01/08 05:20:41;;;;;;;31.48;16.10;;;3.50;99.90;;;;;;5120251;28;20020;-77
2022/01/08 05:23:07;;;;;;;31.75;15.45;;;3.50;99.90;;;;;;5121923;28;20015;-78
2022/01/08 05:25:34;;;;;;;38.17;15.60;;;3.50;99.90;;;;;;5125121;28;20023;-75
2022/01/08 05:28:00;;;;;;;30.60;14.52;;;3.60;99.90;;;;;;5138472;28;20035;-77
2022/01/08 05:30:27;;;;;;;30.92;14.30;;;3.60;99.90;;;;;;5117161;28;20028;-77
2022/01/08 05:32:53;;;;;;;32.55;15.13;;;3.60;99.90;;;;;;5117416;28;20015;-80
2022/01/08 05:35:20;;;;;;;31.42;15.27;;;3.50;99.90;;;;;;5117719;28;20499;-75
2022/01/08 05:37:46;;;;;;;31.88;15.20;;;3.60;99.90;;;;;;5117125;28;20031;-77
2022/01/08 05:40:12;;;;;;;31.30;15.07;;;3.60;99.90;;;;;;5118473;28;20031;-77
2022/01/08 05:42:39;;;;;;;31.80;14.38;;;3.60;99.90;;;;;;5118328;28;20525;-77
2022/01/08 05:45:05;;;;;;;31.70;16.75;;;3.60;99.90;;;;;;5121030;28;20043;-77
2022/01/08 05:47:32;;;;;;;41.25;16.42;;;3.50;99.90;;;;;;5118697;28;20431;-77
2022/01/08 05:49:59;;;;;;;35.10;16.77;;;3.50;99.90;;;;;;5123887;28;20024;-77
2022/01/08 05:52:24;;;;;;;29.05;16.00;;;3.60;99.90;;;;;;5124669;28;20044;-77
2022/01/08 05:54:50;;;;;;;29.80;16.52;;;3.50;99.90;;;;;;5118636;28;20040;-76
2022/01/08 05:57:16;;;;;;;32.15;16.50;;;3.50;99.90;;;;;;5121904;28;20023;-77
2022/01/08 05:59:42;;;;;;;35.80;16.30;;;3.60;99.90;;;;;;5119048;28;20030;-77
2022/01/08 06:02:11;;;;;;;40.72;16.20;;;3.60;99.90;;;;;;5120503;28;20051;-76
2022/01/08 06:04:36;;;;;;;30.45;16.48;;;3.60;99.90;;;;;;5119765;28;20077;-77
2022/01/08 06:07:03;;;;;;;33.88;16.05;;;3.70;99.90;;;;;;5118535;28;20036;-77
2022/01/08 06:09:28;;;;;;;33.00;16.30;;;3.70;99.90;;;;;;5119360;28;20519;-78
2022/01/08 06:11:54;;;;;;;33.33;17.13;;;3.70;99.90;;;;;;5120003;28;20028;-76
2022/01/08 06:14:20;;;;;;;31.80;17.23;;;3.70;99.90;;;;;;5120649;28;20019;-76
2022/01/08 06:16:45;;;;;;;37.15;17.10;;;3.70;99.90;;;;;;5124758;28;20039;-76
2022/01/08 06:19:12;;;;;;;38.03;17.98;;;3.70;99.90;;;;;;5121518;28;20016;-77
2022/01/08 06:21:38;;;;;;;37.38;17.85;;;3.70;99.90;;;;;;5119838;28;20028;-75
2022/01/08 06:24:05;;;;;;;35.15;18.05;;;3.70;99.90;;;;;;5117611;28;20026;-76
2022/01/08 06:26:30;;;;;;;42.67;19.23;;;3.70;99.90;;;;;;5117337;28;20022;-76
2022/01/08 06:28:56;;;;;;;38.35;18.75;;;3.70;99.90;;;;;;5125896;28;20055;-77
2022/01/08 06:31:25;;;;;;;34.67;17.50;;;3.70;99.90;;;;;;5125254;28;20452;-75
2022/01/08 06:33:51;;;;;;;31.38;16.23;;;3.70;99.90;;;;;;5127775;28;20023;-77
2022/01/08 06:36:18;;;;;;;30.83;15.95;;;3.70;99.90;;;;;;5115642;28;20111;-77
2022/01/08 06:38:45;;;;;;;30.88;15.02;;;3.60;99.90;;;;;;5115513;28;20031;-75
2022/01/08 06:41:11;;;;;;;28.42;15.00;;;3.70;99.90;;;;;;5117543;28;20072;-76
2022/01/08 06:43:36;;;;;;;26.40;14.48;;;3.70;99.90;;;;;;5126939;28;20535;-76
2022/01/08 06:46:02;;;;;;;29.90;14.52;;;3.70;99.90;;;;;;5117720;28;20019;-76
2022/01/08 06:48:27;;;;;;;24.73;14.52;;;3.60;99.90;;;;;;5118940;28;20027;-77
2022/01/08 06:50:53;;;;;;;27.73;14.05;;;3.60;99.90;;;;;;5116949;28;20027;-78
2022/01/08 06:53:19;;;;;;;27.48;14.38;;;3.60;99.90;;;;;;5118074;28;20051;-74
2022/01/08 06:55:44;;;;;;;28.48;13.90;;;3.60;99.90;;;;;;5120340;28;20023;-75
2022/01/08 06:58:10;;;;;;;30.02;14.55;;;3.60;99.90;;;;;;5120145;28;20020;-76
2022/01/08 07:00:36;;;;;;;26.20;13.82;;;3.60;99.90;;;;;;5115252;28;20462;-75
2022/01/08 07:03:02;;;;;;;34.22;14.75;;;3.60;99.90;;;;;;5115009;28;20035;-76
2022/01/08 07:05:28;;;;;;;30.42;14.70;;;3.60;99.90;;;;;;5115334;28;20404;-74
2022/01/08 07:07:54;;;;;;;27.55;14.30;;;3.60;99.90;;;;;;5114604;28;20241;-74
2022/01/08 07:10:19;;;;;;;38.30;15.35;;;3.70;99.90;;;;;;5114920;28;20028;-76
2022/01/08 07:12:45;;;;;;;33.70;14.68;;;3.60;99.90;;;;;;5115514;28;20019;-74
2022/01/08 07:15:12;;;;;;;28.38;14.80;;;3.60;99.90;;;;;;5115189;28;20476;-75
2022/01/08 07:17:39;;;;;;;27.95;15.35;;;3.70;99.90;;;;;;5114320;28;20012;-73
2022/01/08 07:20:05;;;;;;;37.03;15.40;;;3.70;99.90;;;;;;5114414;28;20555;-73
2022/01/08 07:22:30;;;;;;;30.65;15.18;;;3.70;99.90;;;;;;5114783;28;20036;-76
2022/01/08 07:24:56;;;;;;;40.45;18.40;;;3.70;99.90;;;;;;5113649;28;20053;-72
2022/01/08 07:27:21;;;;;;;34.63;15.82;;;3.70;99.90;;;;;;5114101;28;20066;-73
2022/01/08 07:29:47;;;;;;;30.77;15.88;;;3.70;99.90;;;;;;5114124;28;20020;-73
2022/01/08 07:32:13;;;;;;;34.25;16.77;;;3.70;99.90;;;;;;5112945;28;20020;-75
2022/01/08 07:34:38;;;;;;;32.67;16.67;;;3.70;99.90;;;;;;5112982;28;20030;-75
2022/01/08 07:37:04;;;;;;;45.28;17.40;;;3.70;99.90;;;;;;5113709;28;20071;-73
2022/01/08 07:39:29;;;;;;;36.55;17.58;;;3.70;99.90;;;;;;5114167;28;20023;-75
2022/01/08 07:41:55;;;;;;;35.08;16.90;;;3.70;99.90;;;;;;5113229;28;20023;-75
2022/01/08 07:44:21;;;;;;;31.80;16.13;;;3.70;99.90;;;;;;5114224;28;20050;-75
2022/01/08 07:46:46;;;;;;;41.90;18.50;;;3.80;99.90;;;;;;5113362;28;20111;-75
2022/01/08 07:49:12;;;;;;;42.22;19.30;;;3.70;99.90;;;;;;5113668;28;20058;-76
2022/01/08 07:51:38;;;;;;;36.45;18.40;;;3.70;99.90;;;;;;5112180;28;20020;-75
2022/01/08 07:54:03;;;;;;;38.20;17.27;;;3.70;99.90;;;;;;5113718;28;20533;-76
2022/01/08 07:56:29;;;;;;;36.45;18.58;;;3.70;99.90;;;;;;5113493;28;20027;-77
2022/01/08 07:58:54;;;;;;;39.42;19.58;;;3.70;99.90;;;;;;5114209;28;20028;-77
2022/01/08 08:01:21;;;;;;;40.42;19.30;;;3.80;99.90;;;;;;5112508;28;20020;-75
2022/01/08 08:03:48;;;;;;;46.60;20.98;;;3.80;99.90;;;;;;5114639;28;20023;-76
2022/01/08 08:06:13;;;;;;;43.03;21.80;;;3.70;99.90;;;;;;5117944;28;20086;-75
2022/01/08 08:08:39;;;;;;;43.47;22.00;;;3.70;99.90;;;;;;5115736;28;20054;-76
2022/01/08 08:11:04;;;;;;;46.20;21.13;;;3.70;99.90;;;;;;5116352;28;20020;-76
2022/01/08 08:13:31;;;;;;;43.40;21.05;;;3.70;99.90;;;;;;5117877;28;20120;-75
2022/01/08 08:15:57;;;;;;;47.80;22.65;;;3.70;99.90;;;;;;5124734;28;20027;-73
2022/01/08 08:18:22;;;;;;;50.05;23.63;;;3.80;99.90;;;;;;5117764;28;20031;-74
2022/01/08 08:20:48;;;;;;;44.85;22.83;;;3.70;99.90;;;;;;5115978;28;20024;-76
2022/01/08 08:23:13;;;;;;;44.30;21.58;;;3.60;99.90;;;;;;5121493;28;20049;-77
2022/01/08 08:25:39;;;;;;;40.40;21.85;;;3.70;99.90;;;;;;5119629;28;20020;-76
2022/01/08 08:28:06;;;;;;;33.22;20.55;;;3.70;99.90;;;;;;5114503;28;20479;-76
2022/01/08 08:30:33;;;;;;;47.10;22.77;;;3.80;99.90;;;;;;5121194;28;20032;-76
2022/01/08 08:32:59;;;;;;;40.88;20.58;;;3.90;99.90;;;;;;5109334;28;20012;-75
2022/01/08 08:35:25;;;;;;;44.92;22.55;;;3.90;99.90;;;;;;5099165;28;20020;-75
2022/01/08 08:37:51;;;;;;;43.10;23.15;;;4.00;99.90;;;;;;5097632;28;20032;-76
2022/01/08 08:40:16;;;;;;;39.35;21.20;;;4.10;99.90;;;;;;5094583;28;20039;-76
2022/01/08 08:42:43;;;;;;;42.88;21.70;;;4.10;99.90;;;;;;5093225;28;20069;-75
2022/01/08 08:45:09;;;;;;;44.80;22.35;;;4.10;99.90;;;;;;5093300;28;20480;-75
2022/01/08 08:47:35;;;;;;;41.55;22.95;;;3.90;99.90;;;;;;5092511;28;20081;-76
2022/01/08 08:50:03;;;;;;;52.78;25.33;;;3.90;99.90;;;;;;5094339;28;20036;-78
2022/01/08 08:52:28;;;;;;;40.83;22.25;;;3.70;99.90;;;;;;5092866;28;20016;-78
2022/01/08 08:54:54;;;;;;;45.70;21.95;;;3.90;99.90;;;;;;5092537;28;20088;-74
2022/01/08 08:57:20;;;;;;;37.08;20.40;;;3.90;99.90;;;;;;5090697;28;20069;-75
2022/01/08 08:59:46;;;;;;;45.22;20.50;;;4.00;99.90;;;;;;5092489;28;20035;-76
2022/01/08 09:02:12;;;;;;;38.28;20.00;;;4.00;99.90;;;;;;5092129;28;20032;-75
2022/01/08 09:04:40;;;;;;;35.28;19.90;;;4.10;99.90;;;;;;5092437;28;20063;-75
2022/01/08 09:07:06;;;;;;;44.20;20.10;;;4.00;99.90;;;;;;5092353;28;20024;-75
2022/01/08 09:09:31;;;;;;;38.15;18.90;;;4.00;99.90;;;;;;5092290;28;20496;-74
2022/01/08 09:11:57;;;;;;;41.17;18.63;;;4.10;99.90;;;;;;5094430;28;20062;-76
2022/01/08 09:14:23;;;;;;;37.60;18.00;;;4.10;99.90;;;;;;5094081;28;20115;-76
2022/01/08 09:16:52;;;;;;;37.83;18.25;;;4.10;99.90;;;;;;5094569;28;20017;-75
2022/01/08 09:19:19;;;;;;;36.47;18.23;;;4.10;99.90;;;;;;5097900;28;20067;-75
2022/01/08 09:21:46;;;;;;;42.63;17.00;;;4.20;99.90;;;;;;5098676;28;20016;-74
2022/01/08 09:24:13;;;;;;;33.42;16.52;;;4.20;99.90;;;;;;5097150;28;20044;-74
2022/01/08 09:26:39;;;;;;;28.85;15.45;;;4.20;99.90;;;;;;5092961;28;20039;-72
2022/01/08 09:29:05;;;;;;;40.20;15.80;;;4.30;99.90;;;;;;5092149;28;20024;-75
2022/01/08 09:31:32;;;;;;;30.00;15.73;;;4.30;99.90;;;;;;5093979;28;20374;-75
2022/01/08 09:33:57;;;;;;;36.90;15.35;;;4.40;99.90;;;;;;5094820;28;20012;-75
2022/01/08 09:36:23;;;;;;;27.35;14.88;;;4.60;99.90;;;;;;5092577;28;20469;-75
2022/01/08 09:38:49;;;;;;;31.02;15.13;;;4.70;99.90;;;;;;5091906;28;20024;-74
2022/01/08 09:41:15;;;;;;;39.60;16.95;;;4.60;99.90;;;;;;5091572;28;20416;-76
2022/01/08 09:43:41;;;;;;;31.38;15.40;;;4.60;99.90;;;;;;5093279;28;20500;-76
2022/01/08 09:46:07;;;;;;;34.13;15.05;;;4.60;99.90;;;;;;5095097;28;20032;-76
2022/01/08 09:48:32;;;;;;;30.45;14.88;;;4.70;99.90;;;;;;5096743;28;20035;-74
2022/01/08 09:50:58;;;;;;;31.85;15.27;;;4.90;99.90;;;;;;5095491;28;20036;-77
2022/01/08 09:53:24;;;;;;;34.28;15.50;;;5.00;99.90;;;;;;5096051;28;20375;-75
2022/01/08 09:55:49;;;;;;;40.58;15.88;;;5.10;99.90;;;;;;5095120;28;20059;-74
2022/01/08 09:58:15;;;;;;;30.98;15.18;;;5.10;99.90;;;;;;5093324;28;20130;-76
2022/01/08 10:00:41;;;;;;;38.97;15.60;;;5.10;99.90;;;;;;5094666;28;20058;-73
2022/01/08 10:03:16;;;;;;;31.27;14.88;;;5.20;99.90;;;;;;5093352;28;20119;-76
2022/01/08 10:05:58;;;;;;;40.28;16.17;;;5.30;99.90;;;;;;5094212;28;20017;-74
2022/01/08 10:08:29;;;;;;;28.02;14.77;;;5.20;99.90;;;;;;5094532;28;20042;-74
2022/01/08 10:11:00;;;;;;;40.35;15.02;;;5.30;99.90;;;;;;5094587;28;20169;-75
2022/01/08 10:13:31;;;;;;;33.10;14.40;;;5.20;99.90;;;;;;5096945;28;20429;-74
2022/01/08 10:18:43;;;;;;;33.58;14.25;;;5.20;99.90;;;;;;5110392;28;20104;-75
2022/01/08 10:21:16;;;;;;;31.30;14.93;;;5.30;99.90;;;;;;5105657;28;20082;-74
2022/01/08 10:23:44;;;;;;;33.40;15.63;;;5.40;99.90;;;;;;5103607;28;20021;-74
2022/01/08 10:26:13;;;;;;;31.63;14.18;;;5.40;99.90;;;;;;5098812;28;20484;-74
2022/01/08 10:28:47;;;;;;;33.63;14.20;;;5.50;99.90;;;;;;5103258;28;20452;-74
2022/01/08 10:31:21;;;;;;;34.30;14.87;;;5.50;99.90;;;;;;5106889;28;20039;-75
2022/01/08 10:34:03;;;;;;;33.65;13.55;;;5.60;99.90;;;;;;5106522;28;20426;-77
2022/01/08 10:36:33;;;;;;;31.17;13.77;;;5.60;99.90;;;;;;5097775;28;20028;-75
2022/01/08 10:39:05;;;;;;;26.85;13.00;;;5.70;99.90;;;;;;5118222;22;20039;-74
2022/01/08 10:41:30;;;;;;;33.33;12.20;;;5.70;99.90;;;;;;5119370;28;20036;-75
2022/01/08 10:44:10;;;;;;;27.00;13.30;;;5.80;99.90;;;;;;5102498;28;20031;-75
2022/01/08 10:46:37;;;;;;;32.38;13.80;;;5.90;99.90;;;;;;5096568;28;20449;-75
2022/01/08 10:49:03;;;;;;;28.20;12.70;;;5.90;99.90;;;;;;5078371;28;20140;-76
2022/01/08 10:51:38;;;;;;;31.08;12.27;;;6.00;99.90;;;;;;5096555;28;20023;-76
2022/01/08 10:54:04;;;;;;;38.08;13.80;;;6.10;99.90;;;;;;5104911;28;20373;-74
2022/01/08 10:56:42;;;;;;;24.52;11.50;;;6.20;99.90;;;;;;5094379;28;20024;-74
2022/01/08 10:59:14;;;;;;;32.58;13.15;;;6.30;99.90;;;;;;5112134;28;20016;-75
2022/01/08 11:01:50;;;;;;;28.10;13.32;;;6.30;99.90;;;;;;5090037;28;20024;-75
2022/01/08 11:04:32;;;;;;;33.72;11.70;;;6.30;99.90;;;;;;5108414;28;20031;-76
2022/01/08 11:07:00;;;;;;;33.35;12.85;;;6.30;99.90;;;;;;5106434;28;20020;-75
2022/01/08 11:09:28;;;;;;;30.55;13.73;;;6.30;99.90;;;;;;5102181;28;20164;-76
2022/01/08 11:11:57;;;;;;;30.52;12.23;;;6.30;99.90;;;;;;5109375;28;20024;-76
2022/01/08 11:17:45;;;;;;;30.60;11.55;;;6.60;99.90;;;;;;5106608;28;20404;-74
2022/01/08 11:20:25;;;;;;;44.40;12.88;;;6.80;99.90;;;;;;5074830;28;20036;-75
2022/01/08 11:22:56;;;;;;;24.42;11.00;;;6.90;99.90;;;;;;5079203;28;20107;-75
2022/01/08 11:25:23;;;;;;;29.40;11.85;;;6.90;99.90;;;;;;5096300;28;20016;-80
2022/01/08 11:28:10;;;;;;;29.33;11.73;;;7.00;99.90;;;;;;5078123;28;20058;-75
2022/01/08 11:30:43;;;;;;;24.23;10.80;;;7.10;99.90;;;;;;5096326;28;20036;-75
2022/01/08 11:33:17;;;;;;;30.48;11.23;;;6.80;99.90;;;;;;5096064;28;20051;-74
2022/01/08 11:35:44;;;;;;;23.20;12.02;;;6.80;99.90;;;;;;5095677;28;20020;-74
2022/01/08 11:38:12;;;;;;;36.20;11.43;;;6.70;99.90;;;;;;5096985;28;20668;-78
2022/01/08 11:40:41;;;;;;;31.67;12.07;;;6.70;99.90;;;;;;5097365;28;20020;-74
2022/01/08 11:43:08;;;;;;;27.50;12.80;;;6.80;99.90;;;;;;5097711;28;20082;-74
2022/01/08 11:45:50;;;;;;;27.63;10.10;;;6.90;99.90;;;;;;5114822;28;20062;-75
2022/01/08 11:48:18;;;;;;;23.85;10.10;;;7.10;99.90;;;;;;5110927;28;20028;-76
2022/01/08 11:50:59;;;;;;;26.27;11.35;;;7.10;99.90;;;;;;5087272;28;20092;-75
2022/01/08 11:53:30;;;;;;;28.80;10.18;;;7.30;99.90;;;;;;5096037;28;20024;-76
2022/01/08 11:55:58;;;;;;;28.02;10.73;;;7.40;99.90;;;;;;5094808;28;20477;-76
2022/01/08 11:58:33;;;;;;;26.10;11.90;;;7.60;99.90;;;;;;5095073;28;20016;-75
2022/01/08 12:01:12;;;;;;;20.95;9.55;;;8.30;99.90;;;;;;5094727;28;20078;-75
2022/01/08 12:03:49;;;;;;;22.23;10.00;;;9.20;99.90;;;;;;5076569;28;20383;-76
2022/01/08 12:06:26;;;;;;;24.35;9.30;;;10.20;99.90;;;;;;5076067;28;20384;-76
2022/01/08 12:09:07;;;;;;;25.08;9.07;;;10.60;99.90;;;;;;5095926;28;20103;-76
2022/01/08 12:11:34;;;;;;;21.60;9.15;;;10.90;99.90;;;;;;5089472;28;20024;-76
2022/01/08 12:14:10;;;;;;;18.80;8.45;;;10.90;99.90;;;;;;5085037;28;20391;-77
2022/01/08 12:16:38;;;;;;;27.55;8.90;;;10.70;99.90;;;;;;5077077;28;20024;-77
2022/01/08 12:19:05;;;;;;;40.67;20.23;;;10.30;99.90;;;;;;5095735;28;20469;-75
2022/01/08 12:21:40;;;;;;;25.10;9.32;;;9.90;99.90;;;;;;5109604;28;20075;-73
2022/01/08 12:24:24;;;;;;;;;;;9.50;99.90;;;;;;5110484;28;20467;-76
2022/01/08 12:26:50;;;;;;;22.10;8.57;;;9.70;99.90;;;;;;5096936;28;20369;-76
2022/01/08 12:29:36;;;;;;;18.40;8.75;;;9.90;99.90;;;;;;5096973;28;20063;-76
2022/01/08 12:32:25;;;;;;;30.67;9.35;;;10.00;99.90;;;;;;5095202;28;20052;-75
2022/01/08 12:35:00;;;;;;;23.45;8.75;;;10.20;99.90;;;;;;5094650;28;20034;-76
2022/01/08 12:37:36;;;;;;;23.02;8.90;;;10.00;99.90;;;;;;5096817;28;20024;-76
2022/01/08 12:40:03;;;;;;;23.30;9.25;;;9.90;99.90;;;;;;5095804;28;20024;-76
2022/01/08 12:42:29;;;;;;;25.75;10.57;;;9.80;99.90;;;;;;5099029;28;20080;-75
2022/01/08 12:45:13;;;;;;;25.20;9.32;;;9.80;99.90;;;;;;5096716;28;20024;-76
2022/01/08 12:47:46;;;;;;;22.02;8.80;;;9.30;99.90;;;;;;5094651;28;20024;-75
2022/01/08 12:50:28;;;;;;;32.22;10.00;;;8.80;99.90;;;;;;5094201;28;20031;-76
2022/01/08 12:53:05;;;;;;;26.73;11.55;;;8.50;99.90;;;;;;5094334;28;20464;-76
2022/01/08 12:55:40;;;;;;;25.38;9.38;;;8.30;99.90;;;;;;5094023;28;20031;-75
2022/01/08 12:58:12;;;;;;;23.17;9.38;;;8.00;99.90;;;;;;5095930;28;20020;-74
2022/01/08 13:00:57;;;;;;;30.75;11.20;;;7.90;99.90;;;;;;5096642;28;20020;-75
2022/01/08 13:03:32;;;;;;;20.58;9.32;;;7.90;99.90;;;;;;5115347;28;20020;-73